sensor_id;sensor_type;location;lat;lon;timestamp;temperature;humidity
66568;DHT22;53422;49.296;6.900;2024-03-08T00:01:53;4.90;99.90
66568;DHT22;53422;49.296;6.900;2024-03-08T00:04:18;4.90;99.90
66568;DHT22;53422;49.296;6.900;2024-03-08T00:06:44;4.90;99.90
66568;DHT22;53422;49.296;6.900;2024-03-08T00:09:12;4.90;99.90
66568;DHT22;53422;49.296;6.900;2024-03-08T00:11:37;4.90;99.90
66568;DHT22;53422;49.296;6.900;2024-03-08T00:14:03;4.90;99.90
66568;DHT22;53422;49.296;6.900;2024-03-08T00:16:32;4.90;99.90
66568;DHT22;53422;49.296;6.900;2024-03-08T00:18:58;4.90;99.90
66568;DHT22;53422;49.296;6.900;2024-03-08T00:21:24;4.90;99.90
66568;DHT22;53422;49.296;6.900;2024-03-08T00:23:49;4.80;99.90
66568;DHT22;53422;49.296;6.900;2024-03-08T00:26:15;4.80;99.90
66568;DHT22;53422;49.296;6.900;2024-03-08T00:28:40;4.90;99.90
66568;DHT22;53422;49.296;6.900;2024-03-08T00:31:06;4.90;99.90
66568;DHT22;53422;49.296;6.900;2024-03-08T00:33:32;4.80;99.90
66568;DHT22;53422;49.296;6.900;2024-03-08T00:35:58;4.90;99.90
66568;DHT22;53422;49.296;6.900;2024-03-08T00:38:23;4.90;99.90
66568;DHT22;53422;49.296;6.900;2024-03-08T00:40:49;4.90;99.90
66568;DHT22;53422;49.296;6.900;2024-03-08T00:43:15;4.90;99.90
66568;DHT22;53422;49.296;6.900;2024-03-08T00:45:41;4.80;99.90
66568;DHT22;53422;49.296;6.900;2024-03-08T00:48:10;4.80;99.90
66568;DHT22;53422;49.296;6.900;2024-03-08T00:50:36;4.80;99.90
66568;DHT22;53422;49.296;6.900;2024-03-08T00:53:02;4.80;99.90
66568;DHT22;53422;49.296;6.900;2024-03-08T00:55:28;4.90;99.90
66568;DHT22;53422;49.296;6.900;2024-03-08T00:57:55;4.90;99.90
66568;DHT22;53422;49.296;6.900;2024-03-08T01:00:20;4.90;99.90
66568;DHT22;53422;49.296;6.900;2024-03-08T01:02:47;4.80;99.90
66568;DHT22;53422;49.296;6.900;2024-03-08T01:05:13;4.80;99.90
66568;DHT22;53422;49.296;6.900;2024-03-08T01:07:38;4.70;99.90
66568;DHT22;53422;49.296;6.900;2024-03-08T01:10:05;4.70;99.90
66568;DHT22;53422;49.296;6.900;2024-03-08T01:12:35;4.70;99.90
66568;DHT22;53422;49.296;6.900;2024-03-08T01:15:00;4.70;99.90
66568;DHT22;53422;49.296;6.900;2024-03-08T01:17:26;4.70;99.90
66568;DHT22;53422;49.296;6.900;2024-03-08T01:19:52;4.70;99.90
66568;DHT22;53422;49.296;6.900;2024-03-08T01:22:19;4.70;99.90
66568;DHT22;53422;49.296;6.900;2024-03-08T01:24:44;4.70;99.90
66568;DHT22;53422;49.296;6.900;2024-03-08T01:27:10;4.60;99.90
66568;DHT22;53422;49.296;6.900;2024-03-08T01:29:37;4.60;99.90
66568;DHT22;53422;49.296;6.900;2024-03-08T01:32:03;4.60;99.90
66568;DHT22;53422;49.296;6.900;2024-03-08T01:34:29;4.70;99.90
66568;DHT22;53422;49.296;6.900;2024-03-08T01:36:54;4.70;99.90
66568;DHT22;53422;49.296;6.900;2024-03-08T01:39:23;4.70;99.90
66568;DHT22;53422;49.296;6.900;2024-03-08T01:41:48;4.60;99.90
66568;DHT22;53422;49.296;6.900;2024-03-08T01:44:14;4.60;99.90
66568;DHT22;53422;49.296;6.900;2024-03-08T01:46:47;4.60;99.90
66568;DHT22;53422;49.296;6.900;2024-03-08T01:49:14;4.60;99.90
66568;DHT22;53422;49.296;6.900;2024-03-08T01:51:41;4.60;99.90
66568;DHT22;53422;49.296;6.900;2024-03-08T01:54:07;4.60;99.90
66568;DHT22;53422;49.296;6.900;2024-03-08T01:56:36;4.60;99.90
66568;DHT22;53422;49.296;6.900;2024-03-08T01:59:02;4.60;99.90
66568;DHT22;53422;49.296;6.900;2024-03-08T02:01:28;4.60;99.90
66568;DHT22;53422;49.296;6.900;2024-03-08T02:03:54;4.60;99.90
66568;DHT22;53422;49.296;6.900;2024-03-08T02:06:20;4.50;99.90
66568;DHT22;53422;49.296;6.900;2024-03-08T02:08:46;4.50;99.90
66568;DHT22;53422;49.296;6.900;2024-03-08T02:11:12;4.40;99.90
66568;DHT22;53422;49.296;6.900;2024-03-08T02:13:38;4.40;99.90
66568;DHT22;53422;49.296;6.900;2024-03-08T02:16:04;4.40;99.90
66568;DHT22;53422;49.296;6.900;2024-03-08T02:18:33;4.50;99.90
66568;DHT22;53422;49.296;6.900;2024-03-08T02:21:01;4.50;99.90
66568;DHT22;53422;49.296;6.900;2024-03-08T02:23:27;4.50;99.90
66568;DHT22;53422;49.296;6.900;2024-03-08T02:25:55;4.50;99.90
66568;DHT22;53422;49.296;6.900;2024-03-08T02:28:22;4.40;99.90
66568;DHT22;53422;49.296;6.900;2024-03-08T02:30:48;4.40;99.90
66568;DHT22;53422;49.296;6.900;2024-03-08T02:33:18;4.30;99.90
66568;DHT22;53422;49.296;6.900;2024-03-08T02:35:48;4.40;99.90
66568;DHT22;53422;49.296;6.900;2024-03-08T02:38:15;4.30;99.90
66568;DHT22;53422;49.296;6.900;2024-03-08T02:40:45;4.30;99.90
66568;DHT22;53422;49.296;6.900;2024-03-08T02:43:12;4.30;99.90
66568;DHT22;53422;49.296;6.900;2024-03-08T02:45:38;4.30;99.90
66568;DHT22;53422;49.296;6.900;2024-03-08T02:48:05;4.30;99.90
66568;DHT22;53422;49.296;6.900;2024-03-08T02:50:34;4.30;99.90
66568;DHT22;53422;49.296;6.900;2024-03-08T02:53:03;4.30;99.90
66568;DHT22;53422;49.296;6.900;2024-03-08T02:55:29;4.30;99.90
66568;DHT22;53422;49.296;6.900;2024-03-08T02:57:55;4.30;99.90
66568;DHT22;53422;49.296;6.900;2024-03-08T03:00:21;4.30;99.90
66568;DHT22;53422;49.296;6.900;2024-03-08T03:02:48;4.30;99.90
66568;DHT22;53422;49.296;6.900;2024-03-08T03:05:14;4.30;99.90
66568;DHT22;53422;49.296;6.900;2024-03-08T03:07:40;4.30;99.90
66568;DHT22;53422;49.296;6.900;2024-03-08T03:10:06;4.30;99.90
66568;DHT22;53422;49.296;6.900;2024-03-08T03:12:32;4.20;99.90
66568;DHT22;53422;49.296;6.900;2024-03-08T03:14:59;4.30;99.90
66568;DHT22;53422;49.296;6.900;2024-03-08T03:17:26;4.30;99.90
66568;DHT22;53422;49.296;6.900;2024-03-08T03:19:52;4.20;99.90
66568;DHT22;53422;49.296;6.900;2024-03-08T03:22:18;4.20;99.90
66568;DHT22;53422;49.296;6.900;2024-03-08T03:24:47;4.20;99.90
66568;DHT22;53422;49.296;6.900;2024-03-08T03:27:13;4.20;99.90
66568;DHT22;53422;49.296;6.900;2024-03-08T03:29:41;4.10;99.90
66568;DHT22;53422;49.296;6.900;2024-03-08T03:32:11;4.20;99.90
66568;DHT22;53422;49.296;6.900;2024-03-08T03:34:37;4.20;99.90
66568;DHT22;53422;49.296;6.900;2024-03-08T03:37:04;4.20;99.90
66568;DHT22;53422;49.296;6.900;2024-03-08T03:39:30;4.10;99.90
66568;DHT22;53422;49.296;6.900;2024-03-08T03:42:14;4.10;99.90
66568;DHT22;53422;49.296;6.900;2024-03-08T03:44:40;4.10;99.90
66568;DHT22;53422;49.296;6.900;2024-03-08T03:47:05;4.10;99.90
66568;DHT22;53422;49.296;6.900;2024-03-08T03:49:32;4.00;99.90
66568;DHT22;53422;49.296;6.900;2024-03-08T03:51:58;4.00;99.90
66568;DHT22;53422;49.296;6.900;2024-03-08T03:54:24;4.00;99.90
66568;DHT22;53422;49.296;6.900;2024-03-08T03:56:50;4.00;99.90
66568;DHT22;53422;49.296;6.900;2024-03-08T03:59:18;4.00;99.90
66568;DHT22;53422;49.296;6.900;2024-03-08T04:01:44;4.00;99.90
66568;DHT22;53422;49.296;6.900;2024-03-08T04:04:10;4.00;99.90
66568;DHT22;53422;49.296;6.900;2024-03-08T04:06:37;4.00;99.90
66568;DHT22;53422;49.296;6.900;2024-03-08T04:09:03;4.00;99.90
66568;DHT22;53422;49.296;6.900;2024-03-08T04:11:30;4.00;99.90
66568;DHT22;53422;49.296;6.900;2024-03-08T04:13:56;3.90;99.90
66568;DHT22;53422;49.296;6.900;2024-03-08T04:16:21;3.90;99.90
66568;DHT22;53422;49.296;6.900;2024-03-08T04:18:47;3.90;99.90
66568;DHT22;53422;49.296;6.900;2024-03-08T04:21:13;4.00;99.90
66568;DHT22;53422;49.296;6.900;2024-03-08T04:23:39;4.00;99.90
66568;DHT22;53422;49.296;6.900;2024-03-08T04:26:05;3.90;99.90
66568;DHT22;53422;49.296;6.900;2024-03-08T04:28:32;4.00;99.90
66568;DHT22;53422;49.296;6.900;2024-03-08T04:30:58;4.00;99.90
66568;DHT22;53422;49.296;6.900;2024-03-08T04:33:26;3.90;99.90
66568;DHT22;53422;49.296;6.900;2024-03-08T04:35:51;3.90;99.90
66568;DHT22;53422;49.296;6.900;2024-03-08T04:38:17;3.90;99.90
66568;DHT22;53422;49.296;6.900;2024-03-08T04:40:43;3.90;99.90
66568;DHT22;53422;49.296;6.900;2024-03-08T04:43:09;3.90;99.90
66568;DHT22;53422;49.296;6.900;2024-03-08T04:45:36;3.80;99.90
66568;DHT22;53422;49.296;6.900;2024-03-08T04:48:02;3.80;99.90
66568;DHT22;53422;49.296;6.900;2024-03-08T04:50:28;3.70;99.90
66568;DHT22;53422;49.296;6.900;2024-03-08T04:52:55;3.70;99.90
66568;DHT22;53422;49.296;6.900;2024-03-08T04:55:21;3.80;99.90
66568;DHT22;53422;49.296;6.900;2024-03-08T04:57:47;3.80;99.90
66568;DHT22;53422;49.296;6.900;2024-03-08T05:00:14;3.80;99.90
66568;DHT22;53422;49.296;6.900;2024-03-08T05:02:41;3.70;99.90
66568;DHT22;53422;49.296;6.900;2024-03-08T05:05:09;3.70;99.90
66568;DHT22;53422;49.296;6.900;2024-03-08T05:07:40;3.70;99.90
66568;DHT22;53422;49.296;6.900;2024-03-08T05:10:07;3.60;99.90
66568;DHT22;53422;49.296;6.900;2024-03-08T05:12:35;3.60;99.90
66568;DHT22;53422;49.296;6.900;2024-03-08T05:15:01;3.60;99.90
66568;DHT22;53422;49.296;6.900;2024-03-08T05:17:28;3.60;99.90
66568;DHT22;53422;49.296;6.900;2024-03-08T05:19:55;3.60;99.90
66568;DHT22;53422;49.296;6.900;2024-03-08T05:22:21;3.60;99.90
66568;DHT22;53422;49.296;6.900;2024-03-08T05:24:46;3.60;99.90
66568;DHT22;53422;49.296;6.900;2024-03-08T05:27:12;3.60;99.90
66568;DHT22;53422;49.296;6.900;2024-03-08T05:29:38;3.50;99.90
66568;DHT22;53422;49.296;6.900;2024-03-08T05:32:04;3.50;99.90
66568;DHT22;53422;49.296;6.900;2024-03-08T05:34:30;3.60;99.90
66568;DHT22;53422;49.296;6.900;2024-03-08T05:36:55;3.50;99.90
66568;DHT22;53422;49.296;6.900;2024-03-08T05:39:23;3.50;99.90
66568;DHT22;53422;49.296;6.900;2024-03-08T05:41:48;3.50;99.90
66568;DHT22;53422;49.296;6.900;2024-03-08T05:44:14;3.60;99.90
66568;DHT22;53422;49.296;6.900;2024-03-08T05:46:42;3.50;99.90
66568;DHT22;53422;49.296;6.900;2024-03-08T05:49:08;3.60;99.90
66568;DHT22;53422;49.296;6.900;2024-03-08T05:51:38;3.60;99.90
66568;DHT22;53422;49.296;6.900;2024-03-08T05:54:06;3.60;99.90
66568;DHT22;53422;49.296;6.900;2024-03-08T05:56:32;3.50;99.90
66568;DHT22;53422;49.296;6.900;2024-03-08T05:58:58;3.40;99.90
66568;DHT22;53422;49.296;6.900;2024-03-08T06:01:24;3.40;99.90
66568;DHT22;53422;49.296;6.900;2024-03-08T06:03:54;3.40;99.90
66568;DHT22;53422;49.296;6.900;2024-03-08T06:06:23;3.50;99.90
66568;DHT22;53422;49.296;6.900;2024-03-08T06:08:50;3.50;99.90
66568;DHT22;53422;49.296;6.900;2024-03-08T06:11:16;3.50;99.90
66568;DHT22;53422;49.296;6.900;2024-03-08T06:13:49;3.50;99.90
66568;DHT22;53422;49.296;6.900;2024-03-08T06:16:15;3.50;99.90
66568;DHT22;53422;49.296;6.900;2024-03-08T06:18:41;3.40;99.90
66568;DHT22;53422;49.296;6.900;2024-03-08T06:21:07;3.30;99.90
66568;DHT22;53422;49.296;6.900;2024-03-08T06:23:34;3.40;99.90
66568;DHT22;53422;49.296;6.900;2024-03-08T06:26:04;3.40;99.90
66568;DHT22;53422;49.296;6.900;2024-03-08T06:28:29;3.50;99.90
66568;DHT22;53422;49.296;6.900;2024-03-08T06:30:55;3.40;99.90
66568;DHT22;53422;49.296;6.900;2024-03-08T06:33:21;3.40;99.90
66568;DHT22;53422;49.296;6.900;2024-03-08T06:35:49;3.40;99.90
66568;DHT22;53422;49.296;6.900;2024-03-08T06:38:15;3.50;99.90
66568;DHT22;53422;49.296;6.900;2024-03-08T06:40:42;3.40;99.90
66568;DHT22;53422;49.296;6.900;2024-03-08T06:43:08;3.30;99.90
66568;DHT22;53422;49.296;6.900;2024-03-08T06:45:33;3.40;99.90
66568;DHT22;53422;49.296;6.900;2024-03-08T06:47:59;3.30;99.90
66568;DHT22;53422;49.296;6.900;2024-03-08T06:50:25;3.30;99.90
66568;DHT22;53422;49.296;6.900;2024-03-08T06:52:51;3.30;99.90
66568;DHT22;53422;49.296;6.900;2024-03-08T06:55:19;3.40;99.90
66568;DHT22;53422;49.296;6.900;2024-03-08T06:57:45;3.40;99.90
66568;DHT22;53422;49.296;6.900;2024-03-08T07:00:11;3.40;99.90
66568;DHT22;53422;49.296;6.900;2024-03-08T07:02:46;3.40;99.90
66568;DHT22;53422;49.296;6.900;2024-03-08T07:05:14;3.40;99.90
66568;DHT22;53422;49.296;6.900;2024-03-08T07:07:40;3.40;99.90
66568;DHT22;53422;49.296;6.900;2024-03-08T07:10:07;3.40;99.90
66568;DHT22;53422;49.296;6.900;2024-03-08T07:12:39;3.40;99.90
66568;DHT22;53422;49.296;6.900;2024-03-08T07:15:05;3.40;99.90
66568;DHT22;53422;49.296;6.900;2024-03-08T07:17:31;3.40;99.90
66568;DHT22;53422;49.296;6.900;2024-03-08T07:20:00;3.40;99.90
66568;DHT22;53422;49.296;6.900;2024-03-08T07:22:32;3.50;99.90
66568;DHT22;53422;49.296;6.900;2024-03-08T07:24:58;3.40;99.90
66568;DHT22;53422;49.296;6.900;2024-03-08T07:27:45;3.40;99.90
66568;DHT22;53422;49.296;6.900;2024-03-08T07:30:11;3.50;99.90
66568;DHT22;53422;49.296;6.900;2024-03-08T07:32:37;3.50;99.90
66568;DHT22;53422;49.296;6.900;2024-03-08T07:35:03;3.50;99.90
66568;DHT22;53422;49.296;6.900;2024-03-08T07:37:30;3.50;99.90
66568;DHT22;53422;49.296;6.900;2024-03-08T07:39:57;3.50;99.90
66568;DHT22;53422;49.296;6.900;2024-03-08T07:42:23;3.60;99.90
66568;DHT22;53422;49.296;6.900;2024-03-08T07:44:49;3.60;99.90
66568;DHT22;53422;49.296;6.900;2024-03-08T07:47:15;3.60;99.90
66568;DHT22;53422;49.296;6.900;2024-03-08T07:49:42;3.60;99.90
66568;DHT22;53422;49.296;6.900;2024-03-08T07:52:09;3.60;99.90
66568;DHT22;53422;49.296;6.900;2024-03-08T07:54:41;3.60;99.90
66568;DHT22;53422;49.296;6.900;2024-03-08T07:57:06;3.70;99.90
66568;DHT22;53422;49.296;6.900;2024-03-08T07:59:32;3.70;99.90
66568;DHT22;53422;49.296;6.900;2024-03-08T08:01:58;3.80;99.90
66568;DHT22;53422;49.296;6.900;2024-03-08T08:04:25;3.80;99.90
66568;DHT22;53422;49.296;6.900;2024-03-08T08:06:51;3.80;99.90
66568;DHT22;53422;49.296;6.900;2024-03-08T08:09:18;3.90;99.90
66568;DHT22;53422;49.296;6.900;2024-03-08T08:11:56;3.90;99.90
66568;DHT22;53422;49.296;6.900;2024-03-08T08:14:22;3.90;99.90
66568;DHT22;53422;49.296;6.900;2024-03-08T08:16:48;3.90;99.90
66568;DHT22;53422;49.296;6.900;2024-03-08T08:19:15;4.00;99.90
66568;DHT22;53422;49.296;6.900;2024-03-08T08:21:41;4.00;99.90
66568;DHT22;53422;49.296;6.900;2024-03-08T08:24:07;4.10;99.90
66568;DHT22;53422;49.296;6.900;2024-03-08T08:26:32;4.10;99.90
66568;DHT22;53422;49.296;6.900;2024-03-08T08:28:59;4.20;99.90
66568;DHT22;53422;49.296;6.900;2024-03-08T08:31:25;4.20;99.90
66568;DHT22;53422;49.296;6.900;2024-03-08T08:33:50;4.30;99.90
66568;DHT22;53422;49.296;6.900;2024-03-08T08:36:19;4.30;99.90
66568;DHT22;53422;49.296;6.900;2024-03-08T08:38:45;4.40;99.90
66568;DHT22;53422;49.296;6.900;2024-03-08T08:41:11;4.40;99.90
66568;DHT22;53422;49.296;6.900;2024-03-08T08:43:36;4.50;99.90
66568;DHT22;53422;49.296;6.900;2024-03-08T08:46:02;4.50;99.90
66568;DHT22;53422;49.296;6.900;2024-03-08T08:48:28;4.60;99.90
66568;DHT22;53422;49.296;6.900;2024-03-08T08:50:56;4.70;99.90
66568;DHT22;53422;49.296;6.900;2024-03-08T08:53:22;4.70;99.90
66568;DHT22;53422;49.296;6.900;2024-03-08T08:55:48;4.70;99.90
66568;DHT22;53422;49.296;6.900;2024-03-08T08:58:13;4.80;99.90
66568;DHT22;53422;49.296;6.900;2024-03-08T09:00:39;4.90;99.90
66568;DHT22;53422;49.296;6.900;2024-03-08T09:03:05;4.90;99.90
66568;DHT22;53422;49.296;6.900;2024-03-08T09:05:32;4.90;99.90
66568;DHT22;53422;49.296;6.900;2024-03-08T09:07:59;5.00;99.90
66568;DHT22;53422;49.296;6.900;2024-03-08T09:10:25;5.00;99.90
66568;DHT22;53422;49.296;6.900;2024-03-08T09:12:51;5.10;99.90
66568;DHT22;53422;49.296;6.900;2024-03-08T09:15:17;5.20;99.90
66568;DHT22;53422;49.296;6.900;2024-03-08T09:17:43;5.20;99.90
66568;DHT22;53422;49.296;6.900;2024-03-08T09:20:10;5.20;99.90
66568;DHT22;53422;49.296;6.900;2024-03-08T09:22:49;5.30;99.90
66568;DHT22;53422;49.296;6.900;2024-03-08T09:25:14;5.30;99.90
66568;DHT22;53422;49.296;6.900;2024-03-08T09:27:40;5.40;99.90
66568;DHT22;53422;49.296;6.900;2024-03-08T09:30:06;5.40;99.90
66568;DHT22;53422;49.296;6.900;2024-03-08T09:32:32;5.40;99.90
66568;DHT22;53422;49.296;6.900;2024-03-08T09:34:58;5.50;99.90
66568;DHT22;53422;49.296;6.900;2024-03-08T09:37:24;5.50;99.90
66568;DHT22;53422;49.296;6.900;2024-03-08T09:39:49;5.60;99.90
66568;DHT22;53422;49.296;6.900;2024-03-08T09:42:16;5.60;99.90
66568;DHT22;53422;49.296;6.900;2024-03-08T09:44:45;5.60;99.80
66568;DHT22;53422;49.296;6.900;2024-03-08T09:47:13;5.60;99.90
66568;DHT22;53422;49.296;6.900;2024-03-08T09:49:40;5.60;99.90
66568;DHT22;53422;49.296;6.900;2024-03-08T09:52:09;5.70;99.90
66568;DHT22;53422;49.296;6.900;2024-03-08T09:54:36;5.70;99.90
66568;DHT22;53422;49.296;6.900;2024-03-08T09:57:04;5.80;99.90
66568;DHT22;53422;49.296;6.900;2024-03-08T09:59:29;5.80;99.50
66568;DHT22;53422;49.296;6.900;2024-03-08T10:02:01;5.80;99.90
66568;DHT22;53422;49.296;6.900;2024-03-08T10:04:28;5.80;99.20
66568;DHT22;53422;49.296;6.900;2024-03-08T10:06:57;5.90;99.90
66568;DHT22;53422;49.296;6.900;2024-03-08T10:09:24;5.90;99.40
66568;DHT22;53422;49.296;6.900;2024-03-08T10:12:01;5.90;99.20
66568;DHT22;53422;49.296;6.900;2024-03-08T10:14:28;5.90;99.20
66568;DHT22;53422;49.296;6.900;2024-03-08T10:16:54;5.90;99.40
66568;DHT22;53422;49.296;6.900;2024-03-08T10:19:20;6.00;99.40
66568;DHT22;53422;49.296;6.900;2024-03-08T10:21:49;5.90;99.90
66568;DHT22;53422;49.296;6.900;2024-03-08T10:24:15;5.90;99.90
66568;DHT22;53422;49.296;6.900;2024-03-08T10:26:41;6.00;99.60
66568;DHT22;53422;49.296;6.900;2024-03-08T10:29:09;6.00;99.90
66568;DHT22;53422;49.296;6.900;2024-03-08T10:31:34;6.00;99.90
66568;DHT22;53422;49.296;6.900;2024-03-08T10:34:01;6.00;99.90
66568;DHT22;53422;49.296;6.900;2024-03-08T10:36:28;6.00;99.90
66568;DHT22;53422;49.296;6.900;2024-03-08T10:38:53;6.00;99.90
66568;DHT22;53422;49.296;6.900;2024-03-08T10:41:24;6.00;99.90
66568;DHT22;53422;49.296;6.900;2024-03-08T10:43:59;6.10;99.90
66568;DHT22;53422;49.296;6.900;2024-03-08T10:49:17;6.20;99.90
66568;DHT22;53422;49.296;6.900;2024-03-08T10:51:44;6.30;98.90
66568;DHT22;53422;49.296;6.900;2024-03-08T10:54:10;6.30;99.90
66568;DHT22;53422;49.296;6.900;2024-03-08T10:56:37;6.30;99.90
66568;DHT22;53422;49.296;6.900;2024-03-08T10:59:04;6.30;99.40
66568;DHT22;53422;49.296;6.900;2024-03-08T11:01:30;6.50;99.10
66568;DHT22;53422;49.296;6.900;2024-03-08T11:03:56;6.40;99.50
66568;DHT22;53422;49.296;6.900;2024-03-08T11:08:57;6.40;98.80
66568;DHT22;53422;49.296;6.900;2024-03-08T11:11:29;6.40;99.60
66568;DHT22;53422;49.296;6.900;2024-03-08T11:13:59;6.40;99.90
66568;DHT22;53422;49.296;6.900;2024-03-08T11:21:36;6.50;98.20
66568;DHT22;53422;49.296;6.900;2024-03-08T11:24:14;6.50;99.30
66568;DHT22;53422;49.296;6.900;2024-03-08T11:26:42;6.60;98.80
66568;DHT22;53422;49.296;6.900;2024-03-08T11:32:16;6.40;99.90
66568;DHT22;53422;49.296;6.900;2024-03-08T11:34:48;6.50;98.90
66568;DHT22;53422;49.296;6.900;2024-03-08T11:37:18;6.50;99.90
66568;DHT22;53422;49.296;6.900;2024-03-08T11:39:48;6.70;98.00
66568;DHT22;53422;49.296;6.900;2024-03-08T11:42:18;6.70;98.40
66568;DHT22;53422;49.296;6.900;2024-03-08T11:44:45;6.60;98.80
66568;DHT22;53422;49.296;6.900;2024-03-08T11:47:11;6.60;99.20
66568;DHT22;53422;49.296;6.900;2024-03-08T11:49:38;6.60;99.80
66568;DHT22;53422;49.296;6.900;2024-03-08T11:52:04;6.70;99.60
66568;DHT22;53422;49.296;6.900;2024-03-08T11:54:31;6.70;98.20
66568;DHT22;53422;49.296;6.900;2024-03-08T11:56:57;6.80;97.80
66568;DHT22;53422;49.296;6.900;2024-03-08T11:59:29;6.80;96.90
66568;DHT22;53422;49.296;6.900;2024-03-08T12:02:14;6.80;97.10
66568;DHT22;53422;49.296;6.900;2024-03-08T12:04:40;6.90;97.50
66568;DHT22;53422;49.296;6.900;2024-03-08T12:07:09;6.90;97.30
66568;DHT22;53422;49.296;6.900;2024-03-08T12:09:37;6.90;96.20
66568;DHT22;53422;49.296;6.900;2024-03-08T12:12:03;6.90;96.90
66568;DHT22;53422;49.296;6.900;2024-03-08T12:14:30;6.90;97.90
66568;DHT22;53422;49.296;6.900;2024-03-08T12:16:57;6.90;97.90
66568;DHT22;53422;49.296;6.900;2024-03-08T12:19:23;6.90;98.10
66568;DHT22;53422;49.296;6.900;2024-03-08T12:21:49;7.00;97.70
66568;DHT22;53422;49.296;6.900;2024-03-08T12:24:17;7.00;96.70
66568;DHT22;53422;49.296;6.900;2024-03-08T12:26:47;7.10;96.80
66568;DHT22;53422;49.296;6.900;2024-03-08T12:29:21;7.00;97.70
66568;DHT22;53422;49.296;6.900;2024-03-08T12:31:54;7.00;97.20
66568;DHT22;53422;49.296;6.900;2024-03-08T12:34:20;7.10;97.60
66568;DHT22;53422;49.296;6.900;2024-03-08T12:36:50;7.10;96.70
66568;DHT22;53422;49.296;6.900;2024-03-08T12:39:21;7.10;97.50
66568;DHT22;53422;49.296;6.900;2024-03-08T12:41:48;7.10;97.90
66568;DHT22;53422;49.296;6.900;2024-03-08T12:44:17;7.30;96.10
66568;DHT22;53422;49.296;6.900;2024-03-08T12:46:44;7.30;96.00
66568;DHT22;53422;49.296;6.900;2024-03-08T12:49:10;7.30;96.30
66568;DHT22;53422;49.296;6.900;2024-03-08T12:51:38;7.40;95.30
66568;DHT22;53422;49.296;6.900;2024-03-08T12:54:05;7.50;95.40
66568;DHT22;53422;49.296;6.900;2024-03-08T12:56:33;7.50;95.90
66568;DHT22;53422;49.296;6.900;2024-03-08T12:59:03;7.50;95.20
66568;DHT22;53422;49.296;6.900;2024-03-08T13:01:29;7.70;95.50
66568;DHT22;53422;49.296;6.900;2024-03-08T13:03:57;7.70;94.00
66568;DHT22;53422;49.296;6.900;2024-03-08T13:06:24;7.70;95.50
66568;DHT22;53422;49.296;6.900;2024-03-08T13:08:53;7.80;94.70
66568;DHT22;53422;49.296;6.900;2024-03-08T13:11:19;7.90;93.20
66568;DHT22;53422;49.296;6.900;2024-03-08T13:13:46;7.90;93.10
66568;DHT22;53422;49.296;6.900;2024-03-08T13:16:12;7.90;93.70
66568;DHT22;53422;49.296;6.900;2024-03-08T13:18:41;7.90;92.90
66568;DHT22;53422;49.296;6.900;2024-03-08T13:21:12;8.00;93.50
66568;DHT22;53422;49.296;6.900;2024-03-08T13:23:41;8.10;92.80
66568;DHT22;53422;49.296;6.900;2024-03-08T13:26:11;8.10;93.50
66568;DHT22;53422;49.296;6.900;2024-03-08T13:28:41;8.20;92.90
66568;DHT22;53422;49.296;6.900;2024-03-08T13:31:06;8.20;93.30
66568;DHT22;53422;49.296;6.900;2024-03-08T13:33:33;8.30;93.30
66568;DHT22;53422;49.296;6.900;2024-03-08T13:36:11;8.20;92.40
66568;DHT22;53422;49.296;6.900;2024-03-08T13:38:49;8.30;93.20
66568;DHT22;53422;49.296;6.900;2024-03-08T13:41:16;8.30;92.80
66568;DHT22;53422;49.296;6.900;2024-03-08T13:43:43;8.40;91.40
66568;DHT22;53422;49.296;6.900;2024-03-08T13:46:09;8.30;94.60
66568;DHT22;53422;49.296;6.900;2024-03-08T13:48:36;8.40;92.90
66568;DHT22;53422;49.296;6.900;2024-03-08T13:51:06;8.50;91.70
66568;DHT22;53422;49.296;6.900;2024-03-08T13:53:32;8.50;92.40
66568;DHT22;53422;49.296;6.900;2024-03-08T13:55:59;8.50;92.60
66568;DHT22;53422;49.296;6.900;2024-03-08T13:58:26;8.50;91.50
66568;DHT22;53422;49.296;6.900;2024-03-08T14:00:51;8.60;92.80
66568;DHT22;53422;49.296;6.900;2024-03-08T14:03:17;8.60;91.00
66568;DHT22;53422;49.296;6.900;2024-03-08T14:05:43;8.60;92.10
66568;DHT22;53422;49.296;6.900;2024-03-08T14:08:10;8.60;89.80
66568;DHT22;53422;49.296;6.900;2024-03-08T14:10:37;8.60;90.80
66568;DHT22;53422;49.296;6.900;2024-03-08T14:13:03;8.60;91.40
66568;DHT22;53422;49.296;6.900;2024-03-08T14:15:31;8.60;90.00
66568;DHT22;53422;49.296;6.900;2024-03-08T14:17:57;8.60;90.90
66568;DHT22;53422;49.296;6.900;2024-03-08T14:20:23;8.60;91.40
66568;DHT22;53422;49.296;6.900;2024-03-08T14:22:59;8.60;92.10
66568;DHT22;53422;49.296;6.900;2024-03-08T14:25:25;8.70;91.60
66568;DHT22;53422;49.296;6.900;2024-03-08T14:27:52;8.70;90.10
66568;DHT22;53422;49.296;6.900;2024-03-08T14:30:23;8.60;90.00
66568;DHT22;53422;49.296;6.900;2024-03-08T14:33:01;8.60;89.10
66568;DHT22;53422;49.296;6.900;2024-03-08T14:35:27;8.60;91.30
66568;DHT22;53422;49.296;6.900;2024-03-08T14:37:56;8.70;91.10
66568;DHT22;53422;49.296;6.900;2024-03-08T14:40:25;8.70;88.40
66568;DHT22;53422;49.296;6.900;2024-03-08T14:42:51;8.70;89.40
66568;DHT22;53422;49.296;6.900;2024-03-08T14:45:17;8.80;87.30
66568;DHT22;53422;49.296;6.900;2024-03-08T14:47:46;8.70;86.20
66568;DHT22;53422;49.296;6.900;2024-03-08T14:50:19;8.70;86.10
66568;DHT22;53422;49.296;6.900;2024-03-08T14:52:45;8.70;86.50
66568;DHT22;53422;49.296;6.900;2024-03-08T14:55:15;8.80;85.30
66568;DHT22;53422;49.296;6.900;2024-03-08T14:57:41;8.70;87.30
66568;DHT22;53422;49.296;6.900;2024-03-08T15:00:08;8.70;85.50
66568;DHT22;53422;49.296;6.900;2024-03-08T15:02:43;8.60;86.50
66568;DHT22;53422;49.296;6.900;2024-03-08T15:05:09;8.60;85.80
66568;DHT22;53422;49.296;6.900;2024-03-08T15:07:37;8.70;87.50
66568;DHT22;53422;49.296;6.900;2024-03-08T15:10:07;8.60;87.60
66568;DHT22;53422;49.296;6.900;2024-03-08T15:12:37;8.60;85.80
66568;DHT22;53422;49.296;6.900;2024-03-08T15:15:02;8.60;87.70
66568;DHT22;53422;49.296;6.900;2024-03-08T15:17:34;8.60;88.50
66568;DHT22;53422;49.296;6.900;2024-03-08T15:20:00;8.50;87.60
66568;DHT22;53422;49.296;6.900;2024-03-08T15:22:26;8.50;90.10
66568;DHT22;53422;49.296;6.900;2024-03-08T15:24:52;8.50;87.10
66568;DHT22;53422;49.296;6.900;2024-03-08T15:27:18;8.50;86.80
66568;DHT22;53422;49.296;6.900;2024-03-08T15:29:44;8.50;89.70
66568;DHT22;53422;49.296;6.900;2024-03-08T15:32:14;8.40;88.20
66568;DHT22;53422;49.296;6.900;2024-03-08T15:34:45;8.40;87.60
66568;DHT22;53422;49.296;6.900;2024-03-08T15:37:11;8.40;88.90
66568;DHT22;53422;49.296;6.900;2024-03-08T15:39:42;8.40;87.60
66568;DHT22;53422;49.296;6.900;2024-03-08T15:42:08;8.30;88.50
66568;DHT22;53422;49.296;6.900;2024-03-08T15:44:37;8.30;88.00
66568;DHT22;53422;49.296;6.900;2024-03-08T15:47:04;8.20;89.50
66568;DHT22;53422;49.296;6.900;2024-03-08T15:49:32;8.20;88.90
66568;DHT22;53422;49.296;6.900;2024-03-08T15:51:58;8.20;89.70
66568;DHT22;53422;49.296;6.900;2024-03-08T15:54:23;8.20;89.10
66568;DHT22;53422;49.296;6.900;2024-03-08T15:56:51;8.10;89.60
66568;DHT22;53422;49.296;6.900;2024-03-08T15:59:16;8.00;89.10